sensor_id;sensor_type;location;lat;lon;timestamp;P1;durP1;ratioP1;P2;durP2;ratioP2
1460;SDS011;724;49.910;12.530;2024-01-30T00:00:02;13.60;;;12.90;;
1460;SDS011;724;49.910;12.530;2024-01-30T00:02:29;13.40;;;12.70;;
1460;SDS011;724;49.910;12.530;2024-01-30T00:04:56;13.00;;;12.30;;
1460;SDS011;724;49.910;12.530;2024-01-30T00:07:24;13.20;;;12.50;;
1460;SDS011;724;49.910;12.530;2024-01-30T00:09:51;13.55;;;12.85;;
1460;SDS011;724;49.910;12.530;2024-01-30T00:12:18;13.32;;;12.63;;
1460;SDS011;724;49.910;12.530;2024-01-30T00:14:45;12.77;;;12.07;;
1460;SDS011;724;49.910;12.530;2024-01-30T00:17:11;13.18;;;12.48;;
1460;SDS011;724;49.910;12.530;2024-01-30T00:19:38;13.10;;;12.40;;
1460;SDS011;724;49.910;12.530;2024-01-30T00:22:05;13.18;;;12.48;;
1460;SDS011;724;49.910;12.530;2024-01-30T00:24:34;12.25;;;11.65;;
1460;SDS011;724;49.910;12.530;2024-01-30T00:27:00;12.80;;;12.10;;
1460;SDS011;724;49.910;12.530;2024-01-30T00:29:27;13.20;;;12.50;;
1460;SDS011;724;49.910;12.530;2024-01-30T00:31:58;13.00;;;12.30;;
1460;SDS011;724;49.910;12.530;2024-01-30T00:34:25;13.35;;;12.65;;
1460;SDS011;724;49.910;12.530;2024-01-30T00:36:52;13.50;;;12.80;;
1460;SDS011;724;49.910;12.530;2024-01-30T00:39:18;13.20;;;12.50;;
1460;SDS011;724;49.910;12.530;2024-01-30T00:41:47;13.20;;;12.50;;
1460;SDS011;724;49.910;12.530;2024-01-30T00:44:13;13.60;;;12.90;;
1460;SDS011;724;49.910;12.530;2024-01-30T00:46:40;13.70;;;13.00;;
1460;SDS011;724;49.910;12.530;2024-01-30T00:49:07;14.00;;;13.30;;
1460;SDS011;724;49.910;12.530;2024-01-30T00:51:34;14.10;;;13.40;;
1460;SDS011;724;49.910;12.530;2024-01-30T00:54:00;13.35;;;12.65;;
1460;SDS011;724;49.910;12.530;2024-01-30T00:56:27;13.52;;;12.82;;
1460;SDS011;724;49.910;12.530;2024-01-30T00:58:55;13.55;;;12.85;;
1460;SDS011;724;49.910;12.530;2024-01-30T01:01:22;13.60;;;12.90;;
1460;SDS011;724;49.910;12.530;2024-01-30T01:03:49;13.52;;;12.82;;
1460;SDS011;724;49.910;12.530;2024-01-30T01:06:16;13.82;;;13.13;;
1460;SDS011;724;49.910;12.530;2024-01-30T01:08:43;13.60;;;12.90;;
1460;SDS011;724;49.910;12.530;2024-01-30T01:11:09;13.80;;;13.10;;
1460;SDS011;724;49.910;12.530;2024-01-30T01:13:36;13.80;;;13.10;;
1460;SDS011;724;49.910;12.530;2024-01-30T01:16:04;14.10;;;13.40;;
1460;SDS011;724;49.910;12.530;2024-01-30T01:18:31;13.50;;;12.80;;
1460;SDS011;724;49.910;12.530;2024-01-30T01:20:58;13.90;;;13.20;;
1460;SDS011;724;49.910;12.530;2024-01-30T01:23:25;13.57;;;12.88;;
1460;SDS011;724;49.910;12.530;2024-01-30T01:25:52;13.60;;;12.90;;
1460;SDS011;724;49.910;12.530;2024-01-30T01:28:20;13.60;;;12.90;;
1460;SDS011;724;49.910;12.530;2024-01-30T01:30:47;14.10;;;13.40;;
1460;SDS011;724;49.910;12.530;2024-01-30T01:33:15;13.70;;;13.00;;
1460;SDS011;724;49.910;12.530;2024-01-30T01:35:42;14.40;;;13.70;;
1460;SDS011;724;49.910;12.530;2024-01-30T01:38:09;14.02;;;13.32;;
1460;SDS011;724;49.910;12.530;2024-01-30T01:40:36;14.00;;;13.30;;
1460;SDS011;724;49.910;12.530;2024-01-30T01:43:04;14.00;;;13.30;;
1460;SDS011;724;49.910;12.530;2024-01-30T01:45:32;14.32;;;13.63;;
1460;SDS011;724;49.910;12.530;2024-01-30T01:47:58;14.15;;;13.45;;
1460;SDS011;724;49.910;12.530;2024-01-30T01:50:26;14.00;;;13.30;;
1460;SDS011;724;49.910;12.530;2024-01-30T01:52:53;13.73;;;13.02;;
1460;SDS011;724;49.910;12.530;2024-01-30T01:55:21;13.20;;;12.50;;
1460;SDS011;724;49.910;12.530;2024-01-30T01:57:49;13.32;;;12.63;;
1460;SDS011;724;49.910;12.530;2024-01-30T02:00:17;13.88;;;13.18;;
1460;SDS011;724;49.910;12.530;2024-01-30T02:02:45;14.70;;;13.95;;
1460;SDS011;724;49.910;12.530;2024-01-30T02:05:12;14.30;;;13.60;;
1460;SDS011;724;49.910;12.530;2024-01-30T02:07:41;14.10;;;13.40;;
1460;SDS011;724;49.910;12.530;2024-01-30T02:10:09;13.43;;;12.73;;
1460;SDS011;724;49.910;12.530;2024-01-30T02:12:36;13.90;;;13.20;;
1460;SDS011;724;49.910;12.530;2024-01-30T02:15:04;14.05;;;13.35;;
1460;SDS011;724;49.910;12.530;2024-01-30T02:17:32;14.00;;;13.30;;
1460;SDS011;724;49.910;12.530;2024-01-30T02:19:59;14.15;;;13.45;;
1460;SDS011;724;49.910;12.530;2024-01-30T02:22:27;14.00;;;13.30;;
1460;SDS011;724;49.910;12.530;2024-01-30T02:24:54;13.20;;;12.50;;
1460;SDS011;724;49.910;12.530;2024-01-30T02:27:21;13.93;;;13.23;;
1460;SDS011;724;49.910;12.530;2024-01-30T02:29:48;13.50;;;12.80;;
1460;SDS011;724;49.910;12.530;2024-01-30T02:32:15;13.55;;;12.85;;
1460;SDS011;724;49.910;12.530;2024-01-30T02:34:42;14.40;;;13.70;;
1460;SDS011;724;49.910;12.530;2024-01-30T02:37:09;14.10;;;13.40;;
1460;SDS011;724;49.910;12.530;2024-01-30T02:39:37;13.73;;;13.02;;
1460;SDS011;724;49.910;12.530;2024-01-30T02:42:04;13.73;;;13.02;;
1460;SDS011;724;49.910;12.530;2024-01-30T02:44:31;13.70;;;13.00;;
1460;SDS011;724;49.910;12.530;2024-01-30T02:46:57;13.73;;;13.02;;
1460;SDS011;724;49.910;12.530;2024-01-30T02:49:24;14.02;;;13.32;;
1460;SDS011;724;49.910;12.530;2024-01-30T02:51:51;13.85;;;13.15;;
1460;SDS011;724;49.910;12.530;2024-01-30T02:54:18;14.00;;;13.30;;
1460;SDS011;724;49.910;12.530;2024-01-30T02:56:46;14.15;;;13.45;;
1460;SDS011;724;49.910;12.530;2024-01-30T02:59:13;13.50;;;12.80;;
1460;SDS011;724;49.910;12.530;2024-01-30T03:01:43;13.40;;;12.70;;
1460;SDS011;724;49.910;12.530;2024-01-30T03:04:11;14.10;;;13.40;;
1460;SDS011;724;49.910;12.530;2024-01-30T03:06:38;14.70;;;13.95;;
1460;SDS011;724;49.910;12.530;2024-01-30T03:09:05;13.90;;;13.20;;
1460;SDS011;724;49.910;12.530;2024-01-30T03:11:31;13.95;;;13.25;;
1460;SDS011;724;49.910;12.530;2024-01-30T03:14:00;13.75;;;13.05;;
1460;SDS011;724;49.910;12.530;2024-01-30T03:16:26;14.20;;;13.50;;
1460;SDS011;724;49.910;12.530;2024-01-30T03:18:53;13.85;;;13.15;;
1460;SDS011;724;49.910;12.530;2024-01-30T03:21:20;14.00;;;13.30;;
1460;SDS011;724;49.910;12.530;2024-01-30T03:23:46;13.80;;;13.10;;
1460;SDS011;724;49.910;12.530;2024-01-30T03:26:13;14.07;;;13.38;;
1460;SDS011;724;49.910;12.530;2024-01-30T03:28:41;13.90;;;13.20;;
1460;SDS011;724;49.910;12.530;2024-01-30T03:31:09;13.60;;;12.90;;
1460;SDS011;724;49.910;12.530;2024-01-30T03:33:36;14.00;;;13.30;;
1460;SDS011;724;49.910;12.530;2024-01-30T03:36:04;13.88;;;13.18;;
1460;SDS011;724;49.910;12.530;2024-01-30T03:38:31;14.20;;;13.50;;
1460;SDS011;724;49.910;12.530;2024-01-30T03:40:58;14.57;;;13.88;;
1460;SDS011;724;49.910;12.530;2024-01-30T03:43:25;14.32;;;13.63;;
1460;SDS011;724;49.910;12.530;2024-01-30T03:45:52;14.45;;;13.75;;
1460;SDS011;724;49.910;12.530;2024-01-30T03:48:20;14.02;;;13.32;;
1460;SDS011;724;49.910;12.530;2024-01-30T03:50:47;14.50;;;13.80;;
1460;SDS011;724;49.910;12.530;2024-01-30T03:53:14;14.43;;;13.73;;
1460;SDS011;724;49.910;12.530;2024-01-30T03:55:41;14.20;;;13.50;;
1460;SDS011;724;49.910;12.530;2024-01-30T03:58:07;14.57;;;13.88;;
1460;SDS011;724;49.910;12.530;2024-01-30T04:00:34;14.70;;;13.95;;
1460;SDS011;724;49.910;12.530;2024-01-30T04:03:01;14.02;;;13.32;;
1460;SDS011;724;49.910;12.530;2024-01-30T04:05:29;14.13;;;13.43;;
1460;SDS011;724;49.910;12.530;2024-01-30T04:07:56;14.10;;;13.40;;
1460;SDS011;724;49.910;12.530;2024-01-30T04:10:23;14.60;;;13.90;;
1460;SDS011;724;49.910;12.530;2024-01-30T04:12:50;14.95;;;14.15;;
1460;SDS011;724;49.910;12.530;2024-01-30T04:15:19;15.00;;;14.20;;
1460;SDS011;724;49.910;12.530;2024-01-30T04:17:46;14.45;;;13.75;;
1460;SDS011;724;49.910;12.530;2024-01-30T04:20:13;14.60;;;13.90;;
1460;SDS011;724;49.910;12.530;2024-01-30T04:22:43;14.13;;;13.43;;
1460;SDS011;724;49.910;12.530;2024-01-30T04:25:09;14.23;;;13.52;;
1460;SDS011;724;49.910;12.530;2024-01-30T04:27:36;14.48;;;13.77;;
1460;SDS011;724;49.910;12.530;2024-01-30T04:30:04;14.90;;;14.10;;
1460;SDS011;724;49.910;12.530;2024-01-30T04:32:31;14.45;;;13.75;;
1460;SDS011;724;49.910;12.530;2024-01-30T04:34:58;14.57;;;13.88;;
1460;SDS011;724;49.910;12.530;2024-01-30T04:37:25;15.60;;;14.80;;
1460;SDS011;724;49.910;12.530;2024-01-30T04:39:53;15.02;;;14.23;;
1460;SDS011;724;49.910;12.530;2024-01-30T04:42:20;14.60;;;13.90;;
1460;SDS011;724;49.910;12.530;2024-01-30T04:44:46;15.63;;;14.82;;
1460;SDS011;724;49.910;12.530;2024-01-30T04:47:13;14.93;;;14.13;;
1460;SDS011;724;49.910;12.530;2024-01-30T04:49:40;14.23;;;13.52;;
1460;SDS011;724;49.910;12.530;2024-01-30T04:52:07;14.70;;;13.95;;
1460;SDS011;724;49.910;12.530;2024-01-30T04:54:34;14.50;;;13.80;;
1460;SDS011;724;49.910;12.530;2024-01-30T04:57:03;15.40;;;14.60;;
1460;SDS011;724;49.910;12.530;2024-01-30T04:59:33;14.50;;;13.80;;
1460;SDS011;724;49.910;12.530;2024-01-30T05:02:00;15.13;;;14.32;;
1460;SDS011;724;49.910;12.530;2024-01-30T05:04:27;15.10;;;14.30;;
1460;SDS011;724;49.910;12.530;2024-01-30T05:06:53;14.90;;;14.10;;
1460;SDS011;724;49.910;12.530;2024-01-30T05:09:20;14.95;;;14.15;;
1460;SDS011;724;49.910;12.530;2024-01-30T05:11:47;15.00;;;14.20;;
1460;SDS011;724;49.910;12.530;2024-01-30T05:14:15;14.80;;;14.00;;
1460;SDS011;724;49.910;12.530;2024-01-30T05:16:49;15.20;;;14.40;;
1460;SDS011;724;49.910;12.530;2024-01-30T05:19:15;15.18;;;14.38;;
1460;SDS011;724;49.910;12.530;2024-01-30T05:21:43;15.20;;;14.40;;
1460;SDS011;724;49.910;12.530;2024-01-30T05:24:10;14.40;;;13.70;;
1460;SDS011;724;49.910;12.530;2024-01-30T05:26:37;14.65;;;13.93;;
1460;SDS011;724;49.910;12.530;2024-01-30T05:29:04;15.15;;;14.35;;
1460;SDS011;724;49.910;12.530;2024-01-30T05:31:32;14.75;;;13.98;;
1460;SDS011;724;49.910;12.530;2024-01-30T05:33:59;15.10;;;14.30;;
1460;SDS011;724;49.910;12.530;2024-01-30T05:36:26;14.60;;;13.88;;
1460;SDS011;724;49.910;12.530;2024-01-30T05:38:53;14.60;;;13.90;;
1460;SDS011;724;49.910;12.530;2024-01-30T05:41:20;14.50;;;13.80;;
1460;SDS011;724;49.910;12.530;2024-01-30T05:43:46;14.10;;;13.40;;
1460;SDS011;724;49.910;12.530;2024-01-30T05:46:13;14.40;;;13.70;;
1460;SDS011;724;49.910;12.530;2024-01-30T05:48:41;15.30;;;14.50;;
1460;SDS011;724;49.910;12.530;2024-01-30T05:51:08;14.52;;;13.82;;
1460;SDS011;724;49.910;12.530;2024-01-30T05:53:35;14.50;;;13.80;;
1460;SDS011;724;49.910;12.530;2024-01-30T05:56:02;14.60;;;13.90;;
1460;SDS011;724;49.910;12.530;2024-01-30T05:58:29;14.60;;;13.90;;
1460;SDS011;724;49.910;12.530;2024-01-30T06:00:56;15.30;;;14.50;;
1460;SDS011;724;49.910;12.530;2024-01-30T06:03:23;15.55;;;14.75;;
1460;SDS011;724;49.910;12.530;2024-01-30T06:05:51;15.88;;;15.07;;
1460;SDS011;724;49.910;12.530;2024-01-30T06:08:18;15.32;;;14.52;;
1460;SDS011;724;49.910;12.530;2024-01-30T06:10:44;15.63;;;14.82;;
1460;SDS011;724;49.910;12.530;2024-01-30T06:13:12;15.25;;;14.45;;
1460;SDS011;724;49.910;12.530;2024-01-30T06:15:39;15.40;;;14.60;;
1460;SDS011;724;49.910;12.530;2024-01-30T06:18:06;14.80;;;14.00;;
1460;SDS011;724;49.910;12.530;2024-01-30T06:20:33;14.50;;;13.80;;
1460;SDS011;724;49.910;12.530;2024-01-30T06:23:01;14.25;;;13.55;;
1460;SDS011;724;49.910;12.530;2024-01-30T06:25:28;14.80;;;14.00;;
1460;SDS011;724;49.910;12.530;2024-01-30T06:27:55;15.38;;;14.57;;
1460;SDS011;724;49.910;12.530;2024-01-30T06:30:22;15.70;;;14.90;;
1460;SDS011;724;49.910;12.530;2024-01-30T06:32:49;15.40;;;14.60;;
1460;SDS011;724;49.910;12.530;2024-01-30T06:35:15;15.90;;;15.10;;
1460;SDS011;724;49.910;12.530;2024-01-30T06:37:42;15.75;;;14.95;;
1460;SDS011;724;49.910;12.530;2024-01-30T06:40:11;15.50;;;14.70;;
1460;SDS011;724;49.910;12.530;2024-01-30T06:42:38;14.82;;;14.02;;
1460;SDS011;724;49.910;12.530;2024-01-30T06:45:05;15.77;;;14.98;;
1460;SDS011;724;49.910;12.530;2024-01-30T06:47:33;15.55;;;14.75;;
1460;SDS011;724;49.910;12.530;2024-01-30T06:49:59;15.20;;;14.40;;
1460;SDS011;724;49.910;12.530;2024-01-30T06:52:27;15.50;;;14.70;;
1460;SDS011;724;49.910;12.530;2024-01-30T06:54:53;15.88;;;15.07;;
1460;SDS011;724;49.910;12.530;2024-01-30T06:57:22;15.60;;;14.80;;
1460;SDS011;724;49.910;12.530;2024-01-30T06:59:48;16.00;;;15.20;;
1460;SDS011;724;49.910;12.530;2024-01-30T07:02:15;15.90;;;15.10;;
1460;SDS011;724;49.910;12.530;2024-01-30T07:04:42;15.77;;;14.98;;
1460;SDS011;724;49.910;12.530;2024-01-30T07:07:09;15.88;;;15.07;;
1460;SDS011;724;49.910;12.530;2024-01-30T07:09:37;16.40;;;15.60;;
1460;SDS011;724;49.910;12.530;2024-01-30T07:12:04;15.60;;;14.80;;
1460;SDS011;724;49.910;12.530;2024-01-30T07:14:33;16.13;;;15.32;;
1460;SDS011;724;49.910;12.530;2024-01-30T07:17:00;16.70;;;15.90;;
1460;SDS011;724;49.910;12.530;2024-01-30T07:19:27;15.18;;;14.38;;
1460;SDS011;724;49.910;12.530;2024-01-30T07:21:54;16.10;;;15.30;;
1460;SDS011;724;49.910;12.530;2024-01-30T07:24:20;15.40;;;14.60;;
1460;SDS011;724;49.910;12.530;2024-01-30T07:26:47;15.50;;;14.70;;
1460;SDS011;724;49.910;12.530;2024-01-30T07:29:14;15.93;;;15.13;;
1460;SDS011;724;49.910;12.530;2024-01-30T07:31:42;15.57;;;14.77;;
1460;SDS011;724;49.910;12.530;2024-01-30T07:34:09;16.20;;;15.40;;
1460;SDS011;724;49.910;12.530;2024-01-30T07:36:37;15.98;;;15.18;;
1460;SDS011;724;49.910;12.530;2024-01-30T07:39:04;16.02;;;15.23;;
1460;SDS011;724;49.910;12.530;2024-01-30T07:41:31;16.63;;;15.82;;
1460;SDS011;724;49.910;12.530;2024-01-30T07:43:58;17.02;;;16.13;;
1460;SDS011;724;49.910;12.530;2024-01-30T07:46:25;16.10;;;15.30;;
1460;SDS011;724;49.910;12.530;2024-01-30T07:48:53;15.50;;;14.70;;
1460;SDS011;724;49.910;12.530;2024-01-30T07:51:20;14.10;;;13.40;;
1460;SDS011;724;49.910;12.530;2024-01-30T07:53:47;14.20;;;13.50;;
1460;SDS011;724;49.910;12.530;2024-01-30T07:56:14;14.50;;;13.80;;
1460;SDS011;724;49.910;12.530;2024-01-30T07:58:41;15.65;;;14.85;;
1460;SDS011;724;49.910;12.530;2024-01-30T08:01:08;15.77;;;14.98;;
1460;SDS011;724;49.910;12.530;2024-01-30T08:03:34;15.70;;;14.90;;
1460;SDS011;724;49.910;12.530;2024-01-30T08:06:03;15.75;;;14.95;;
1460;SDS011;724;49.910;12.530;2024-01-30T08:08:31;16.27;;;15.48;;
1460;SDS011;724;49.910;12.530;2024-01-30T08:10:58;15.95;;;15.15;;
1460;SDS011;724;49.910;12.530;2024-01-30T08:13:25;15.85;;;15.05;;
1460;SDS011;724;49.910;12.530;2024-01-30T08:15:51;16.00;;;15.20;;
1460;SDS011;724;49.910;12.530;2024-01-30T08:18:18;15.70;;;14.90;;
1460;SDS011;724;49.910;12.530;2024-01-30T08:20:45;15.90;;;15.10;;
1460;SDS011;724;49.910;12.530;2024-01-30T08:23:13;16.00;;;15.20;;
1460;SDS011;724;49.910;12.530;2024-01-30T08:25:40;16.10;;;15.30;;
1460;SDS011;724;49.910;12.530;2024-01-30T08:28:07;15.95;;;15.15;;
1460;SDS011;724;49.910;12.530;2024-01-30T08:30:33;15.50;;;14.70;;
1460;SDS011;724;49.910;12.530;2024-01-30T08:33:00;16.27;;;15.48;;
1460;SDS011;724;49.910;12.530;2024-01-30T08:35:27;15.70;;;14.90;;
1460;SDS011;724;49.910;12.530;2024-01-30T08:37:56;15.90;;;15.10;;
1460;SDS011;724;49.910;12.530;2024-01-30T08:40:24;15.65;;;14.85;;
1460;SDS011;724;49.910;12.530;2024-01-30T08:42:51;15.93;;;15.13;;
1460;SDS011;724;49.910;12.530;2024-01-30T08:45:18;16.20;;;15.40;;
1460;SDS011;724;49.910;12.530;2024-01-30T08:47:45;16.10;;;15.30;;
1460;SDS011;724;49.910;12.530;2024-01-30T08:50:12;16.10;;;15.30;;
1460;SDS011;724;49.910;12.530;2024-01-30T08:52:38;16.33;;;15.52;;
1460;SDS011;724;49.910;12.530;2024-01-30T08:55:05;16.40;;;15.60;;
1460;SDS011;724;49.910;12.530;2024-01-30T08:57:34;16.33;;;15.52;;
1460;SDS011;724;49.910;12.530;2024-01-30T09:00:01;16.70;;;15.90;;
1460;SDS011;724;49.910;12.530;2024-01-30T09:02:31;16.00;;;15.20;;
1460;SDS011;724;49.910;12.530;2024-01-30T09:04:58;16.25;;;15.45;;
1460;SDS011;724;49.910;12.530;2024-01-30T09:07:25;16.40;;;15.60;;
1460;SDS011;724;49.910;12.530;2024-01-30T09:09:52;16.20;;;15.40;;
1460;SDS011;724;49.910;12.530;2024-01-30T09:12:18;16.15;;;15.35;;
1460;SDS011;724;49.910;12.530;2024-01-30T09:14:47;16.60;;;15.80;;
1460;SDS011;724;49.910;12.530;2024-01-30T09:17:13;16.30;;;15.50;;
1460;SDS011;724;49.910;12.530;2024-01-30T09:19:40;16.30;;;15.50;;
1460;SDS011;724;49.910;12.530;2024-01-30T09:22:07;16.45;;;15.65;;
1460;SDS011;724;49.910;12.530;2024-01-30T09:24:33;16.50;;;15.70;;
1460;SDS011;724;49.910;12.530;2024-01-30T09:27:00;16.60;;;15.80;;
1460;SDS011;724;49.910;12.530;2024-01-30T09:29:27;16.20;;;15.40;;
1460;SDS011;724;49.910;12.530;2024-01-30T09:31:55;16.40;;;15.60;;
1460;SDS011;724;49.910;12.530;2024-01-30T09:34:22;16.60;;;15.80;;
1460;SDS011;724;49.910;12.530;2024-01-30T09:36:49;17.10;;;16.20;;
1460;SDS011;724;49.910;12.530;2024-01-30T09:39:16;17.10;;;16.20;;
1460;SDS011;724;49.910;12.530;2024-01-30T09:41:45;17.42;;;16.52;;
1460;SDS011;724;49.910;12.530;2024-01-30T09:44:15;17.40;;;16.50;;
1460;SDS011;724;49.910;12.530;2024-01-30T09:46:42;17.27;;;16.38;;
1460;SDS011;724;49.910;12.530;2024-01-30T09:49:13;16.90;;;16.00;;
1460;SDS011;724;49.910;12.530;2024-01-30T09:51:40;17.10;;;16.20;;
1460;SDS011;724;49.910;12.530;2024-01-30T09:54:07;17.38;;;16.48;;
1460;SDS011;724;49.910;12.530;2024-01-30T09:56:35;17.20;;;16.30;;
1460;SDS011;724;49.910;12.530;2024-01-30T09:59:02;17.30;;;16.40;;
1460;SDS011;724;49.910;12.530;2024-01-30T10:01:29;17.00;;;16.10;;
1460;SDS011;724;49.910;12.530;2024-01-30T10:03:57;16.98;;;16.08;;
1460;SDS011;724;49.910;12.530;2024-01-30T10:06:25;17.50;;;16.60;;
1460;SDS011;724;49.910;12.530;2024-01-30T10:08:53;17.00;;;16.10;;
1460;SDS011;724;49.910;12.530;2024-01-30T10:11:20;17.10;;;16.20;;
1460;SDS011;724;49.910;12.530;2024-01-30T10:13:47;17.20;;;16.30;;
1460;SDS011;724;49.910;12.530;2024-01-30T10:16:14;16.92;;;16.02;;
1460;SDS011;724;49.910;12.530;2024-01-30T10:18:42;17.05;;;16.15;;
1460;SDS011;724;49.910;12.530;2024-01-30T10:21:08;17.00;;;16.10;;
1460;SDS011;724;49.910;12.530;2024-01-30T10:23:37;17.10;;;16.20;;
1460;SDS011;724;49.910;12.530;2024-01-30T10:26:04;17.10;;;16.20;;
1460;SDS011;724;49.910;12.530;2024-01-30T10:28:33;16.70;;;15.90;;
1460;SDS011;724;49.910;12.530;2024-01-30T10:31:00;16.70;;;15.90;;
1460;SDS011;724;49.910;12.530;2024-01-30T10:33:28;17.10;;;16.20;;
1460;SDS011;724;49.910;12.530;2024-01-30T10:35:55;16.77;;;15.93;;
1460;SDS011;724;49.910;12.530;2024-01-30T10:38:27;17.20;;;16.30;;
1460;SDS011;724;49.910;12.530;2024-01-30T10:40:57;17.40;;;16.50;;
1460;SDS011;724;49.910;12.530;2024-01-30T10:43:26;17.13;;;16.23;;
1460;SDS011;724;49.910;12.530;2024-01-30T10:45:57;17.20;;;16.30;;
1460;SDS011;724;49.910;12.530;2024-01-30T10:48:29;17.30;;;16.40;;
1460;SDS011;724;49.910;12.530;2024-01-30T10:50:59;17.30;;;16.40;;
1460;SDS011;724;49.910;12.530;2024-01-30T10:53:28;17.20;;;16.30;;
1460;SDS011;724;49.910;12.530;2024-01-30T10:55:58;17.27;;;16.37;;
1460;SDS011;724;49.910;12.530;2024-01-30T10:58:26;17.60;;;16.70;;
1460;SDS011;724;49.910;12.530;2024-01-30T11:00:53;17.30;;;16.40;;
1460;SDS011;724;49.910;12.530;2024-01-30T11:03:21;17.10;;;16.20;;
1460;SDS011;724;49.910;12.530;2024-01-30T11:05:49;16.60;;;15.80;;
1460;SDS011;724;49.910;12.530;2024-01-30T11:08:22;17.00;;;16.10;;
1460;SDS011;724;49.910;12.530;2024-01-30T11:10:54;16.90;;;16.00;;
1460;SDS011;724;49.910;12.530;2024-01-30T11:13:23;17.00;;;16.10;;
1460;SDS011;724;49.910;12.530;2024-01-30T11:15:53;17.50;;;16.60;;
1460;SDS011;724;49.910;12.530;2024-01-30T11:18:23;17.20;;;16.30;;
1460;SDS011;724;49.910;12.530;2024-01-30T11:20:51;17.10;;;16.20;;
1460;SDS011;724;49.910;12.530;2024-01-30T11:23:18;17.33;;;16.42;;
1460;SDS011;724;49.910;12.530;2024-01-30T11:25:45;17.20;;;16.30;;
1460;SDS011;724;49.910;12.530;2024-01-30T11:28:15;17.05;;;16.15;;
1460;SDS011;724;49.910;12.530;2024-01-30T11:30:43;17.30;;;16.40;;
1460;SDS011;724;49.910;12.530;2024-01-30T11:33:13;17.40;;;16.50;;
1460;SDS011;724;49.910;12.530;2024-01-30T11:35:40;17.30;;;16.40;;
1460;SDS011;724;49.910;12.530;2024-01-30T11:38:08;17.05;;;16.15;;
1460;SDS011;724;49.910;12.530;2024-01-30T11:40:36;17.08;;;16.17;;
1460;SDS011;724;49.910;12.530;2024-01-30T11:43:04;17.20;;;16.30;;
1460;SDS011;724;49.910;12.530;2024-01-30T11:45:33;17.08;;;16.17;;
1460;SDS011;724;49.910;12.530;2024-01-30T11:48:02;17.17;;;16.27;;
1460;SDS011;724;49.910;12.530;2024-01-30T11:50:29;17.33;;;16.42;;
1460;SDS011;724;49.910;12.530;2024-01-30T11:52:57;17.20;;;16.30;;
1460;SDS011;724;49.910;12.530;2024-01-30T11:55:25;17.30;;;16.40;;
1460;SDS011;724;49.910;12.530;2024-01-30T11:57:54;17.40;;;16.50;;
1460;SDS011;724;49.910;12.530;2024-01-30T12:00:21;17.42;;;16.52;;
1460;SDS011;724;49.910;12.530;2024-01-30T12:02:49;17.20;;;16.30;;
1460;SDS011;724;49.910;12.530;2024-01-30T12:05:18;17.10;;;16.20;;
1460;SDS011;724;49.910;12.530;2024-01-30T12:07:45;17.00;;;16.10;;
1460;SDS011;724;49.910;12.530;2024-01-30T12:10:14;17.05;;;16.15;;
1460;SDS011;724;49.910;12.530;2024-01-30T12:12:56;17.00;;;16.10;;
1460;SDS011;724;49.910;12.530;2024-01-30T12:15:24;17.20;;;16.30;;
1460;SDS011;724;49.910;12.530;2024-01-30T12:17:51;17.40;;;16.50;;
1460;SDS011;724;49.910;12.530;2024-01-30T12:20:19;17.10;;;16.20;;
1460;SDS011;724;49.910;12.530;2024-01-30T12:22:47;17.40;;;16.50;;
1460;SDS011;724;49.910;12.530;2024-01-30T12:25:14;17.30;;;16.40;;
1460;SDS011;724;49.910;12.530;2024-01-30T12:27:43;17.42;;;16.52;;
1460;SDS011;724;49.910;12.530;2024-01-30T12:30:12;18.00;;;17.10;;
1460;SDS011;724;49.910;12.530;2024-01-30T12:32:40;17.40;;;16.50;;
1460;SDS011;724;49.910;12.530;2024-01-30T12:35:09;17.65;;;16.75;;
1460;SDS011;724;49.910;12.530;2024-01-30T12:37:37;17.20;;;16.30;;
1460;SDS011;724;49.910;12.530;2024-01-30T12:40:05;17.30;;;16.40;;
1460;SDS011;724;49.910;12.530;2024-01-30T12:42:33;16.90;;;16.00;;
1460;SDS011;724;49.910;12.530;2024-01-30T12:45:00;17.40;;;16.50;;
1460;SDS011;724;49.910;12.530;2024-01-30T12:47:27;17.42;;;16.52;;
1460;SDS011;724;49.910;12.530;2024-01-30T12:49:54;17.10;;;16.20;;
1460;SDS011;724;49.910;12.530;2024-01-30T12:52:21;17.27;;;16.38;;
1460;SDS011;724;49.910;12.530;2024-01-30T12:54:50;17.00;;;16.10;;
1460;SDS011;724;49.910;12.530;2024-01-30T12:57:17;17.17;;;16.27;;
1460;SDS011;724;49.910;12.530;2024-01-30T12:59:44;16.60;;;15.80;;
1460;SDS011;724;49.910;12.530;2024-01-30T13:02:11;16.90;;;16.00;;
1460;SDS011;724;49.910;12.530;2024-01-30T13:04:39;16.90;;;16.00;;
1460;SDS011;724;49.910;12.530;2024-01-30T13:07:06;16.70;;;15.90;;
1460;SDS011;724;49.910;12.530;2024-01-30T13:09:33;16.80;;;15.95;;
1460;SDS011;724;49.910;12.530;2024-01-30T13:12:01;16.40;;;15.60;;
1460;SDS011;724;49.910;12.530;2024-01-30T13:14:28;16.50;;;15.70;;
1460;SDS011;724;49.910;12.530;2024-01-30T13:16:55;16.50;;;15.70;;
1460;SDS011;724;49.910;12.530;2024-01-30T13:19:21;16.70;;;15.90;;
1460;SDS011;724;49.910;12.530;2024-01-30T13:21:48;16.58;;;15.77;;
1460;SDS011;724;49.910;12.530;2024-01-30T13:24:15;16.50;;;15.70;;
1460;SDS011;724;49.910;12.530;2024-01-30T13:26:46;16.60;;;15.80;;
1460;SDS011;724;49.910;12.530;2024-01-30T13:29:14;16.70;;;15.90;;
1460;SDS011;724;49.910;12.530;2024-01-30T13:31:41;16.40;;;15.60;;
1460;SDS011;724;49.910;12.530;2024-01-30T13:34:09;16.50;;;15.70;;
1460;SDS011;724;49.910;12.530;2024-01-30T13:36:36;16.50;;;15.70;;
1460;SDS011;724;49.910;12.530;2024-01-30T13:39:02;16.20;;;15.40;;
1460;SDS011;724;49.910;12.530;2024-01-30T13:41:30;16.50;;;15.70;;
1460;SDS011;724;49.910;12.530;2024-01-30T13:43:57;16.60;;;15.80;;
1460;SDS011;724;49.910;12.530;2024-01-30T13:46:25;16.70;;;15.90;;
1460;SDS011;724;49.910;12.530;2024-01-30T13:48:51;16.60;;;15.80;;
1460;SDS011;724;49.910;12.530;2024-01-30T13:51:18;17.00;;;16.10;;
1460;SDS011;724;49.910;12.530;2024-01-30T13:53:45;16.92;;;16.02;;
1460;SDS011;724;49.910;12.530;2024-01-30T13:56:12;16.90;;;16.00;;
1460;SDS011;724;49.910;12.530;2024-01-30T13:58:38;16.92;;;16.02;;
1460;SDS011;724;49.910;12.530;2024-01-30T14:01:05;17.00;;;16.10;;
1460;SDS011;724;49.910;12.530;2024-01-30T14:03:33;16.98;;;16.08;;
1460;SDS011;724;49.910;12.530;2024-01-30T14:06:00;17.00;;;16.10;;
1460;SDS011;724;49.910;12.530;2024-01-30T14:08:27;17.38;;;16.48;;
1460;SDS011;724;49.910;12.530;2024-01-30T14:10:54;17.10;;;16.20;;
1460;SDS011;724;49.910;12.530;2024-01-30T14:13:21;16.90;;;16.00;;
1460;SDS011;724;49.910;12.530;2024-01-30T14:15:50;17.10;;;16.20;;
1460;SDS011;724;49.910;12.530;2024-01-30T14:18:16;17.10;;;16.20;;
1460;SDS011;724;49.910;12.530;2024-01-30T14:20:44;17.08;;;16.17;;
1460;SDS011;724;49.910;12.530;2024-01-30T14:23:11;16.60;;;15.80;;
1460;SDS011;724;49.910;12.530;2024-01-30T14:25:38;16.50;;;15.70;;
1460;SDS011;724;49.910;12.530;2024-01-30T14:28:05;16.70;;;15.90;;
1460;SDS011;724;49.910;12.530;2024-01-30T14:30:32;16.58;;;15.77;;
1460;SDS011;724;49.910;12.530;2024-01-30T14:32:58;16.98;;;16.08;;
1460;SDS011;724;49.910;12.530;2024-01-30T14:35:25;16.70;;;15.90;;
1460;SDS011;724;49.910;12.530;2024-01-30T14:37:53;16.50;;;15.70;;
1460;SDS011;724;49.910;12.530;2024-01-30T14:40:20;16.30;;;15.50;;
1460;SDS011;724;49.910;12.530;2024-01-30T14:42:47;16.30;;;15.50;;
1460;SDS011;724;49.910;12.530;2024-01-30T14:45:14;16.10;;;15.30;;
1460;SDS011;724;49.910;12.530;2024-01-30T14:47:41;16.10;;;15.30;;